createdAt,value
2019-02-28T00:10:49.698Z,100975.91
2019-02-28T00:13:21.435Z,100974.07
2019-02-28T00:16:11.986Z,100969.51
2019-02-28T00:18:39.140Z,100974.21
2019-02-28T00:21:47.091Z,100974.00
2019-02-28T00:24:14.314Z,100969.65
2019-02-28T00:27:22.324Z,100970.69
2019-02-28T00:29:49.518Z,100967.75
2019-02-28T00:35:59.354Z,100961.67
2019-02-28T00:42:00.926Z,100950.90
2019-02-28T00:44:31.222Z,100949.57
2019-02-28T00:47:07.349Z,100951.97
2019-02-28T00:53:08.145Z,100946.97
2019-02-28T00:55:35.615Z,100941.09
2019-02-28T01:01:23.301Z,100939.11
2019-02-28T01:03:50.822Z,100939.28
2019-02-28T01:09:19.606Z,100926.58
2019-02-28T01:11:48.654Z,100920.28
2019-02-28T01:14:35.828Z,100922.67
2019-02-28T01:21:02.917Z,100923.80
2019-02-28T01:23:30.226Z,100912.01
2019-02-28T01:26:18.934Z,100914.50
2019-02-28T01:28:46.106Z,100912.16
2019-02-28T01:31:54.122Z,100908.91
2019-02-28T01:34:21.283Z,100906.59
2019-02-28T01:40:30.434Z,100908.60
2019-02-28T01:42:57.624Z,100908.11
2019-02-28T01:45:24.813Z,100900.05
2019-02-28T01:48:32.765Z,100894.36
2019-02-28T01:54:33.444Z,100898.28
2019-02-28T01:57:00.628Z,100890.25
2019-02-28T01:59:39.352Z,100888.95
2019-02-28T02:11:49.603Z,100863.02
2019-02-28T02:14:16.849Z,100861.30
2019-02-28T02:16:43.989Z,100862.44
2019-02-28T02:22:11.913Z,100857.34
2019-02-28T02:33:52.442Z,100839.78
2019-02-28T02:36:38.467Z,100834.72
2019-02-28T02:42:11.308Z,100833.94
2019-02-28T02:44:57.279Z,100829.57
2019-02-28T02:47:31.328Z,100829.63
2019-02-28T02:50:01.397Z,100820.66
2019-02-28T02:55:28.028Z,100825.16
2019-02-28T02:57:57.166Z,100823.07
2019-02-28T03:00:24.351Z,100820.81
2019-02-28T03:02:51.414Z,100813.82
2019-02-28T03:05:18.609Z,100808.16
2019-02-28T03:07:46.091Z,100807.84
2019-02-28T03:10:17.519Z,100804.16
2019-02-28T03:13:04.853Z,100806.44
2019-02-28T03:15:38.036Z,100796.41
2019-02-28T03:21:06.388Z,100802.06
2019-02-28T03:23:37.911Z,100797.02
2019-02-28T03:26:12.454Z,100796.09
2019-02-28T03:28:59.501Z,100794.03
2019-02-28T03:32:07.522Z,100796.52
2019-02-28T03:34:34.998Z,100786.55
2019-02-28T03:43:26.612Z,100779.72
2019-02-28T03:45:54.175Z,100781.41
2019-02-28T03:49:02.169Z,100775.40
2019-02-28T03:51:29.664Z,100779.02
2019-02-28T03:54:45.532Z,100778.30
2019-02-28T04:03:48.058Z,100774.19
2019-02-28T04:09:17.895Z,100769.13
2019-02-28T04:11:56.619Z,100769.57
2019-02-28T04:14:23.831Z,100762.03
2019-02-28T04:16:54.049Z,100761.11
2019-02-28T04:19:29.744Z,100762.69
2019-02-28T04:21:56.922Z,100761.67
2019-02-28T04:24:24.077Z,100763.03
2019-02-28T04:29:52.638Z,100772.09
2019-02-28T04:32:26.623Z,100775.28
2019-02-28T04:34:54.635Z,100774.12
2019-02-28T04:37:21.815Z,100771.47
2019-02-28T04:39:48.961Z,100778.89
2019-02-28T04:42:18.016Z,100770.22
2019-02-28T04:45:04.627Z,100769.45
2019-02-28T04:47:51.311Z,100765.55
2019-02-28T04:50:18.467Z,100759.81
2019-02-28T04:53:05.140Z,100768.06
2019-02-28T04:55:34.269Z,100760.46
2019-02-28T04:58:10.947Z,100751.73
2019-02-28T05:00:38.878Z,100751.56
2019-02-28T05:06:28.180Z,100749.28
2019-02-28T05:12:29.326Z,100753.47
2019-02-28T05:14:58.511Z,100759.19
2019-02-28T05:23:35.992Z,100770.96
2019-02-28T05:26:23.515Z,100765.68
2019-02-28T05:28:58.629Z,100764.24
2019-02-28T05:31:27.110Z,100769.67
2019-02-28T05:34:23.972Z,100763.66
2019-02-28T05:36:51.154Z,100764.19
2019-02-28T05:39:18.299Z,100760.86
2019-02-28T05:41:49.447Z,100768.30
2019-02-28T05:44:37.440Z,100762.32
2019-02-28T05:47:11.660Z,100766.00
2019-02-28T05:49:40.658Z,100757.76
2019-02-28T05:52:17.410Z,100758.42
2019-02-28T05:54:47.207Z,100754.63
2019-02-28T05:57:33.806Z,100761.48
2019-02-28T06:00:01.787Z,100756.92
2019-02-28T06:02:39.831Z,100753.06
2019-02-28T06:08:40.943Z,100762.95
2019-02-28T06:11:08.285Z,100779.60
2019-02-28T06:13:36.974Z,100777.36
2019-02-28T06:16:14.343Z,100783.30
2019-02-28T06:18:41.431Z,100787.23
2019-02-28T06:24:12.808Z,100789.95
2019-02-28T06:26:45.294Z,100786.16
2019-02-28T06:29:12.915Z,100784.97
2019-02-28T06:35:00.636Z,100783.77
2019-02-28T06:37:28.182Z,100786.59
2019-02-28T06:39:58.052Z,100791.09
2019-02-28T06:42:30.803Z,100797.62
2019-02-28T06:44:58.731Z,100798.94
2019-02-28T06:47:49.590Z,100796.78
2019-02-28T06:53:43.023Z,100802.42
2019-02-28T06:56:10.267Z,100795.98
2019-02-28T06:58:37.486Z,100791.28
2019-02-28T07:01:04.748Z,100801.84
2019-02-28T07:03:31.937Z,100794.25
2019-02-28T07:06:01.196Z,100799.56
2019-02-28T07:09:08.957Z,100803.29
2019-02-28T07:11:36.146Z,100801.69
2019-02-28T07:14:03.617Z,100807.54
2019-02-28T07:16:34.496Z,100802.73
2019-02-28T07:22:55.645Z,100806.02
2019-02-28T07:28:37.805Z,100804.62
2019-02-28T07:34:34.632Z,100815.91
2019-02-28T07:37:42.640Z,100816.19
2019-02-28T07:40:41.951Z,100816.78
2019-02-28T07:43:12.279Z,100806.34
2019-02-28T07:48:37.979Z,100794.86
2019-02-28T07:54:06.452Z,100800.93
2019-02-28T07:56:53.116Z,100799.58
2019-02-28T07:59:20.354Z,100792.20
2019-02-28T08:02:28.354Z,100791.26
2019-02-28T08:04:55.981Z,100787.43
2019-02-28T08:07:23.162Z,100787.55
2019-02-28T08:09:50.372Z,100792.03
2019-02-28T08:12:17.636Z,100792.89
2019-02-28T08:14:47.089Z,100790.70
2019-02-28T08:17:43.901Z,100793.42
2019-02-28T08:20:59.635Z,100797.72
2019-02-28T08:32:30.718Z,100781.01
2019-02-28T08:34:59.537Z,100781.47
2019-02-28T08:40:57.911Z,100772.42
2019-02-28T08:46:26.197Z,100776.91
2019-02-28T08:48:53.519Z,100778.60
2019-02-28T08:54:26.269Z,100785.23
2019-02-28T08:57:00.512Z,100771.47
2019-02-28T08:59:27.742Z,100769.71
2019-02-28T09:01:54.948Z,100772.42
2019-02-28T09:04:22.115Z,100775.38
2019-02-28T09:06:49.650Z,100776.34
2019-02-28T09:09:16.882Z,100773.17
2019-02-28T09:12:24.929Z,100774.34
2019-02-28T09:14:55.403Z,100761.18
2019-02-28T09:17:31.142Z,100753.05
2019-02-28T09:23:34.464Z,100759.06
2019-02-28T09:26:51.662Z,100756.53
2019-02-28T09:29:21.194Z,100761.69
2019-02-28T09:32:27.164Z,100754.33
2019-02-28T09:34:54.657Z,100762.73
2019-02-28T09:37:21.818Z,100756.66
2019-02-28T09:40:08.566Z,100756.05
2019-02-28T09:43:16.579Z,100739.45
2019-02-28T09:45:43.823Z,100747.08
2019-02-28T09:51:19.285Z,100748.73
2019-02-28T09:53:47.304Z,100749.81
2019-02-28T09:56:21.684Z,100745.70
2019-02-28T09:58:49.613Z,100749.31
2019-02-28T10:01:27.876Z,100738.78
2019-02-28T10:07:28.847Z,100728.73
2019-02-28T10:09:56.697Z,100725.72
2019-02-28T10:12:23.880Z,100721.41
2019-02-28T10:15:10.737Z,100736.98
2019-02-28T10:17:37.819Z,100740.80
2019-02-28T10:23:06.739Z,100728.30
2019-02-28T10:25:34.004Z,100721.76
2019-02-28T10:28:02.697Z,100724.34
2019-02-28T10:30:36.499Z,100727.41
2019-02-28T10:36:38.093Z,100727.39
2019-02-28T10:42:07.983Z,100717.19
2019-02-28T10:44:49.051Z,100716.27
2019-02-28T10:47:16.182Z,100703.00
2019-02-28T10:49:43.480Z,100697.87
2019-02-28T10:52:10.697Z,100683.30
2019-02-28T10:54:37.912Z,100681.09
2019-02-28T10:57:06.125Z,100690.06
2019-02-28T10:59:40.893Z,100684.04
2019-02-28T11:08:21.819Z,100684.53
2019-02-28T11:14:20.632Z,100684.61
2019-02-28T11:16:47.884Z,100687.42
2019-02-28T11:19:18.613Z,100685.86
2019-02-28T11:24:29.971Z,100677.58
2019-02-28T11:26:57.242Z,100679.10
2019-02-28T11:29:24.408Z,100678.07
2019-02-28T11:32:32.471Z,100672.43
2019-02-28T11:34:59.699Z,100665.23
2019-02-28T11:38:07.853Z,100685.86
2019-02-28T11:40:35.405Z,100685.36
2019-02-28T11:43:43.527Z,100674.87
2019-02-28T11:49:31.003Z,100669.84
2019-02-28T11:51:58.362Z,100654.86
2019-02-28T11:54:26.196Z,100654.84
2019-02-28T11:57:37.774Z,100666.17
2019-02-28T12:00:32.585Z,100660.52
2019-02-28T12:03:46.062Z,100655.90
2019-02-28T12:06:13.302Z,100652.70
2019-02-28T12:08:41.601Z,100654.50
2019-02-28T12:11:28.545Z,100653.97
2019-02-28T12:13:56.100Z,100656.57
2019-02-28T12:16:44.698Z,100643.77
2019-02-28T12:19:31.342Z,100632.85
2019-02-28T12:22:00.139Z,100628.58
2019-02-28T12:27:55.276Z,100622.48
2019-02-28T12:33:37.230Z,100616.46
2019-02-28T12:36:04.276Z,100595.41
2019-02-28T12:38:31.475Z,100594.64
2019-02-28T12:40:58.664Z,100596.95
2019-02-28T12:43:25.854Z,100593.50
2019-02-28T12:45:53.644Z,100587.98
2019-02-28T12:48:31.602Z,100582.19
2019-02-28T12:50:58.716Z,100580.59
2019-02-28T12:53:38.035Z,100575.98
2019-02-28T12:56:05.220Z,100564.98
2019-02-28T12:58:38.758Z,100567.52
2019-02-28T13:04:03.399Z,100558.00
2019-02-28T13:06:37.150Z,100555.01
2019-02-28T13:12:08.153Z,100540.83
2019-02-28T13:14:55.201Z,100540.17
2019-02-28T13:17:54.287Z,100544.16
2019-02-28T13:23:42.189Z,100537.98
2019-02-28T13:26:09.365Z,100540.98
2019-02-28T13:28:36.538Z,100529.16
2019-02-28T13:34:20.466Z,100519.14
2019-02-28T13:37:19.569Z,100523.66
2019-02-28T13:39:58.780Z,100518.33
2019-02-28T13:46:17.693Z,100509.45
2019-02-28T13:52:20.506Z,100504.97
2019-02-28T13:55:14.335Z,100499.96
2019-02-28T13:57:48.883Z,100505.31
2019-02-28T14:00:30.287Z,100487.64
2019-02-28T14:03:11.297Z,100484.98
2019-02-28T14:08:59.446Z,100482.47
2019-02-28T14:14:07.691Z,100478.95
2019-02-28T14:16:55.204Z,100472.62
2019-02-28T14:20:05.047Z,100473.46
2019-02-28T14:25:52.497Z,100464.64
2019-02-28T14:28:19.711Z,100467.14
2019-02-28T14:30:46.887Z,100456.64
2019-02-28T14:33:16.224Z,100452.30
2019-02-28T14:39:35.178Z,100445.64
2019-02-28T14:42:03.028Z,100447.79
2019-02-28T14:44:51.235Z,100445.83
2019-02-28T14:47:18.331Z,100450.66
2019-02-28T14:50:26.349Z,100447.17
2019-02-28T14:56:28.033Z,100438.67
2019-02-28T14:58:57.515Z,100440.31
2019-02-28T15:01:30.512Z,100445.29
2019-02-28T15:03:57.974Z,100439.63
2019-02-28T15:06:26.363Z,100450.98
2019-02-28T15:09:00.393Z,100439.66
2019-02-28T15:11:48.199Z,100452.84
2019-02-28T15:14:22.525Z,100457.84
2019-02-28T15:16:49.741Z,100463.64
2019-02-28T15:22:21.005Z,100461.31
2019-02-28T15:24:56.842Z,100460.65
2019-02-28T15:27:24.469Z,100466.66
2019-02-28T15:30:11.489Z,100461.00
2019-02-28T15:32:38.707Z,100466.50
2019-02-28T15:35:49.838Z,100473.34
2019-02-28T15:41:24.525Z,100473.33
2019-02-28T15:47:22.821Z,100474.00
2019-02-28T15:50:51.701Z,100469.66
2019-02-28T15:53:25.738Z,100458.69
2019-02-28T15:55:52.950Z,100472.53
2019-02-28T15:58:20.505Z,100463.84
2019-02-28T16:00:47.952Z,100462.16
2019-02-28T16:03:16.773Z,100459.11
2019-02-28T16:05:56.218Z,100458.09
2019-02-28T16:11:53.578Z,100452.48
2019-02-28T16:23:43.505Z,100460.05
2019-02-28T16:26:11.035Z,100461.95
2019-02-28T16:28:39.527Z,100464.21
2019-02-28T16:31:13.575Z,100462.27
2019-02-28T16:34:08.037Z,100473.23
2019-02-28T16:36:49.452Z,100480.47
2019-02-28T16:42:28.913Z,100483.29
2019-02-28T16:44:56.143Z,100499.89
2019-02-28T16:47:24.353Z,100512.87
2019-02-28T16:49:59.466Z,100515.75
2019-02-28T16:52:28.479Z,100523.91
2019-02-28T16:54:56.268Z,100528.43
2019-02-28T16:58:15.108Z,100525.33
2019-02-28T17:01:01.844Z,100556.06
2019-02-28T17:03:29.044Z,100562.95
2019-02-28T17:09:45.822Z,100577.16
2019-02-28T17:18:03.438Z,100601.49
2019-02-28T17:21:16.864Z,100605.53
2019-02-28T17:23:47.238Z,100610.36
2019-02-28T17:26:14.773Z,100603.63
2019-02-28T17:29:01.537Z,100622.61
2019-02-28T17:31:49.320Z,100618.37
2019-02-28T17:34:36.092Z,100630.92
2019-02-28T17:43:24.063Z,100651.55
2019-02-28T17:45:58.196Z,100653.95
2019-02-28T17:49:06.120Z,100656.42
2019-02-28T17:51:58.567Z,100661.42
2019-02-28T17:55:09.892Z,100657.17
2019-02-28T17:57:59.882Z,100657.09
2019-02-28T18:04:45.818Z,100664.06
2019-02-28T18:07:52.212Z,100666.17
2019-02-28T18:10:59.166Z,100666.17
2019-02-28T18:14:09.288Z,100662.48
2019-02-28T18:17:17.343Z,100669.86
2019-02-28T18:20:25.868Z,100666.67
2019-02-28T18:23:38.866Z,100668.72
2019-02-28T18:26:45.566Z,100661.63
2019-02-28T18:29:52.490Z,100664.47
2019-02-28T18:35:40.792Z,100671.30
2019-02-28T18:38:08.274Z,100667.57
2019-02-28T18:47:20.801Z,100679.61
2019-02-28T18:50:08.016Z,100677.02
2019-02-28T18:53:16.186Z,100680.23
2019-02-28T18:59:17.278Z,100672.00
2019-02-28T19:07:59.713Z,100672.00
2019-02-28T19:10:27.034Z,100665.54
2019-02-28T19:12:54.573Z,100663.52
2019-02-28T19:15:21.899Z,100659.95
2019-02-28T19:18:08.651Z,100667.70
2019-02-28T19:20:48.705Z,100663.36
2019-02-28T19:26:36.134Z,100661.63
2019-02-28T19:32:24.975Z,100667.87
2019-02-28T19:37:54.390Z,100668.57
2019-02-28T19:46:23.869Z,100676.41
2019-02-28T20:00:55.671Z,100667.95
2019-02-28T20:03:23.576Z,100674.56
2019-02-28T20:06:02.847Z,100660.06
2019-02-28T20:11:56.494Z,100650.12
2019-02-28T20:14:23.667Z,100657.22
2019-02-28T20:16:50.917Z,100652.79
2019-02-28T20:19:18.161Z,100655.90
2019-02-28T20:22:17.268Z,100657.95
2019-02-28T20:24:45.006Z,100660.59
2019-02-28T20:27:12.859Z,100657.25
2019-02-28T20:32:41.346Z,100657.56
2019-02-28T20:35:10.839Z,100652.04
2019-02-28T20:38:18.886Z,100645.94
2019-02-28T20:40:46.207Z,100646.53
2019-02-28T20:43:13.480Z,100647.64
2019-02-28T20:48:33.973Z,100641.97
2019-02-28T20:51:13.130Z,100645.81
2019-02-28T21:00:46.963Z,100649.17
2019-02-28T21:09:48.457Z,100637.45
2019-02-28T21:12:15.654Z,100635.98
2019-02-28T21:14:42.883Z,100635.52
2019-02-28T21:17:10.493Z,100635.52
2019-02-28T21:19:37.773Z,100635.50
2019-02-28T21:22:05.493Z,100632.39
2019-02-28T21:24:32.877Z,100632.72
2019-02-28T21:27:00.423Z,100626.26
2019-02-28T21:29:27.642Z,100617.28
2019-02-28T21:31:54.980Z,100614.84
2019-02-28T21:34:22.259Z,100611.03
2019-02-28T21:36:49.502Z,100616.91
2019-02-28T21:39:16.814Z,100610.98
2019-02-28T21:41:44.476Z,100610.30
2019-02-28T21:44:11.817Z,100615.25
2019-02-28T21:46:39.094Z,100612.84
2019-02-28T21:49:06.310Z,100612.14
2019-02-28T21:51:33.550Z,100609.00
2019-02-28T21:54:00.804Z,100602.38
2019-02-28T21:56:28.078Z,100598.66
2019-02-28T21:58:55.610Z,100586.45
2019-02-28T22:01:22.966Z,100591.72
2019-02-28T22:03:50.448Z,100588.05
2019-02-28T22:06:18.028Z,100585.41
2019-02-28T22:08:45.620Z,100580.98
2019-02-28T22:11:13.422Z,100586.84
2019-02-28T22:13:40.624Z,100582.42
2019-02-28T22:16:07.856Z,100575.56
2019-02-28T22:18:35.065Z,100578.88
2019-02-28T22:21:02.320Z,100578.93
2019-02-28T22:23:29.767Z,100577.98
2019-02-28T22:25:56.983Z,100576.67
2019-02-28T22:28:24.263Z,100569.95
2019-02-28T22:31:11.345Z,100569.20
2019-02-28T22:33:58.197Z,100566.07
2019-02-28T22:36:45.022Z,100568.01
2019-02-28T22:39:12.655Z,100555.52
2019-02-28T22:41:41.622Z,100548.32
2019-02-28T22:44:08.852Z,100544.37
2019-02-28T22:46:36.040Z,100533.60
2019-02-28T22:49:03.240Z,100527.86
2019-02-28T22:52:11.290Z,100532.33
2019-02-28T22:54:38.480Z,100523.38
2019-02-28T23:00:04.901Z,100526.02
2019-02-28T23:02:33.909Z,100527.44
2019-02-28T23:05:43.769Z,100514.31
2019-02-28T23:10:50.211Z,100502.47
2019-02-28T23:13:59.976Z,100505.84
2019-02-28T23:16:27.177Z,100499.86
2019-02-28T23:18:55.002Z,100495.49
2019-02-28T23:24:37.040Z,100489.53
2019-02-28T23:27:23.649Z,100484.28
2019-02-28T23:30:37.685Z,100492.81
2019-02-28T23:36:26.501Z,100483.98
2019-02-28T23:38:53.698Z,100498.27
2019-02-28T23:41:54.497Z,100487.16
2019-02-28T23:47:41.586Z,100482.19
2019-02-28T23:50:08.685Z,100474.23
2019-02-28T23:55:37.441Z,100465.19
